createdAt,value
2018-11-25T00:00:32.464Z,6.10
2018-11-25T00:03:01.376Z,6.10
2018-11-25T00:05:29.733Z,6.10
2018-11-25T00:07:58.173Z,6.10
2018-11-25T00:10:26.666Z,6.00
2018-11-25T00:12:55.741Z,6.00
2018-11-25T00:15:24.206Z,6.00
2018-11-25T00:17:52.653Z,6.00
2018-11-25T00:20:21.085Z,6.10
2018-11-25T00:22:49.482Z,6.10
2018-11-25T00:25:18.403Z,6.10
2018-11-25T00:27:46.886Z,6.10
2018-11-25T00:30:16.048Z,6.10
2018-11-25T00:32:44.598Z,6.10
2018-11-25T00:35:14.659Z,6.10
2018-11-25T00:37:48.130Z,6.10
2018-11-25T00:40:12.988Z,6.10
2018-11-25T00:42:41.478Z,6.20
2018-11-25T00:45:11.414Z,6.20
2018-11-25T00:47:39.858Z,6.20
2018-11-25T00:50:10.982Z,6.10
2018-11-25T00:52:39.648Z,6.10
2018-11-25T00:55:17.949Z,6.20
2018-11-25T00:57:46.408Z,6.20
2018-11-25T01:00:16.088Z,6.20
2018-11-25T01:02:44.704Z,6.20
2018-11-25T01:05:13.406Z,6.20
2018-11-25T01:07:41.786Z,6.20
2018-11-25T01:10:11.524Z,6.20
2018-11-25T01:12:39.937Z,6.20
2018-11-25T01:15:14.154Z,6.20
2018-11-25T01:17:42.789Z,6.20
2018-11-25T01:20:13.480Z,6.20
2018-11-25T01:22:41.990Z,6.10
2018-11-25T01:25:11.186Z,6.10
2018-11-25T01:27:39.648Z,6.10
2018-11-25T01:30:10.802Z,6.10
2018-11-25T01:32:39.271Z,6.10
2018-11-25T01:35:09.111Z,6.10
2018-11-25T01:37:37.577Z,6.10
2018-11-25T01:40:10.336Z,6.00
2018-11-25T01:42:38.826Z,6.00
2018-11-25T01:45:09.041Z,6.00
2018-11-25T01:47:37.541Z,6.10
2018-11-25T01:50:07.526Z,6.10
2018-11-25T01:52:36.069Z,6.10
2018-11-25T01:55:04.613Z,6.10
2018-11-25T01:57:33.052Z,6.10
2018-11-25T02:00:01.536Z,6.10
2018-11-25T02:02:29.937Z,6.00
2018-11-25T02:04:58.404Z,6.10
2018-11-25T02:07:26.788Z,6.10
2018-11-25T02:09:55.358Z,6.10
2018-11-25T02:12:23.721Z,6.20
2018-11-25T02:14:52.241Z,6.20
2018-11-25T02:17:20.675Z,6.10
2018-11-25T02:19:49.240Z,6.10
2018-11-25T02:22:17.629Z,6.10
2018-11-25T02:24:46.149Z,6.10
2018-11-25T02:27:14.793Z,6.20
2018-11-25T02:29:43.426Z,6.20
2018-11-25T02:32:11.902Z,6.20
2018-11-25T02:34:40.381Z,6.20
2018-11-25T02:37:08.812Z,6.20
2018-11-25T02:39:37.189Z,6.20
2018-11-25T02:42:05.758Z,6.20
2018-11-25T02:44:34.230Z,6.30
2018-11-25T02:47:02.630Z,6.30
2018-11-25T02:49:31.229Z,6.30
2018-11-25T02:51:59.848Z,6.30
2018-11-25T02:54:28.335Z,6.20
2018-11-25T02:56:56.771Z,6.20
2018-11-25T02:59:25.316Z,6.20
2018-11-25T03:01:53.657Z,6.20
2018-11-25T03:04:22.142Z,6.20
2018-11-25T03:06:50.524Z,6.20
2018-11-25T03:09:19.078Z,6.20
2018-11-25T03:11:47.490Z,6.20
2018-11-25T03:14:16.036Z,6.20
2018-11-25T03:16:44.587Z,6.30
2018-11-25T03:19:13.146Z,6.20
2018-11-25T03:21:41.626Z,6.20
2018-11-25T03:24:10.163Z,6.20
2018-11-25T03:26:38.655Z,6.20
2018-11-25T03:29:07.229Z,6.20
2018-11-25T03:31:35.652Z,6.20
2018-11-25T03:34:04.122Z,6.20
2018-11-25T03:36:32.493Z,6.20
2018-11-25T03:39:01.011Z,6.30
2018-11-25T03:41:29.533Z,6.20
2018-11-25T03:43:57.954Z,6.20
2018-11-25T03:46:26.340Z,6.20
2018-11-25T03:48:54.834Z,6.20
2018-11-25T03:51:23.437Z,6.20
2018-11-25T03:53:51.870Z,6.20
2018-11-25T03:56:20.319Z,6.20
2018-11-25T03:58:48.862Z,6.20
2018-11-25T04:01:17.301Z,6.20
2018-11-25T04:03:46.406Z,6.20
2018-11-25T04:06:14.853Z,6.20
2018-11-25T04:08:43.357Z,6.20
2018-11-25T04:11:11.826Z,6.20
2018-11-25T04:13:40.413Z,6.20
2018-11-25T04:16:08.797Z,6.20
2018-11-25T04:18:37.446Z,6.20
2018-11-25T04:21:06.191Z,6.20
2018-11-25T04:23:34.614Z,6.20
2018-11-25T04:26:03.079Z,6.20
2018-11-25T04:28:31.578Z,6.30
2018-11-25T04:30:59.966Z,6.30
2018-11-25T04:33:28.510Z,6.20
2018-11-25T04:35:56.945Z,6.20
2018-11-25T04:38:25.513Z,6.20
2018-11-25T04:40:54.023Z,6.20
2018-11-25T04:43:22.566Z,6.10
2018-11-25T04:45:51.725Z,6.10
2018-11-25T04:48:20.337Z,6.10
2018-11-25T04:50:48.806Z,6.10
2018-11-25T04:53:17.241Z,6.10
2018-11-25T04:55:45.661Z,6.10
2018-11-25T04:58:14.134Z,6.10
2018-11-25T05:00:42.502Z,6.10
2018-11-25T05:03:11.027Z,6.10
2018-11-25T05:05:39.486Z,6.10
2018-11-25T05:08:08.013Z,6.10
2018-11-25T05:10:36.465Z,6.10
2018-11-25T05:13:05.181Z,6.10
2018-11-25T05:15:33.573Z,6.10
2018-11-25T05:18:02.077Z,6.10
2018-11-25T05:20:30.517Z,6.00
2018-11-25T05:22:59.000Z,6.00
2018-11-25T05:25:27.507Z,6.00
2018-11-25T05:27:55.945Z,6.00
2018-11-25T05:30:24.453Z,6.00
2018-11-25T05:32:52.961Z,6.00
2018-11-25T05:35:21.790Z,6.00
2018-11-25T05:37:50.981Z,6.00
2018-11-25T05:40:19.388Z,6.10
2018-11-25T05:42:47.939Z,6.10
2018-11-25T05:45:18.222Z,6.10
2018-11-25T05:47:46.681Z,6.20
2018-11-25T05:50:18.010Z,6.20
2018-11-25T05:52:46.506Z,6.20
2018-11-25T05:55:15.067Z,6.20
2018-11-25T05:57:43.465Z,6.30
2018-11-25T06:00:26.634Z,6.20
2018-11-25T06:02:55.025Z,6.20
2018-11-25T06:05:23.453Z,6.20
2018-11-25T06:07:51.885Z,6.20
2018-11-25T06:10:20.346Z,6.20
2018-11-25T06:12:48.833Z,6.30
2018-11-25T06:15:17.195Z,6.30
2018-11-25T06:17:45.630Z,6.40
2018-11-25T06:20:14.984Z,6.30
2018-11-25T06:22:43.473Z,6.30
2018-11-25T06:25:15.787Z,6.30
2018-11-25T06:27:44.223Z,6.30
2018-11-25T06:30:15.673Z,6.30
2018-11-25T06:32:44.147Z,6.30
2018-11-25T06:35:13.581Z,6.20
2018-11-25T06:37:42.096Z,6.20
2018-11-25T06:40:13.473Z,6.20
2018-11-25T06:42:41.937Z,6.20
2018-11-25T06:45:12.942Z,6.20
2018-11-25T06:47:41.521Z,6.30
2018-11-25T06:50:12.710Z,6.30
2018-11-25T06:52:41.128Z,6.40
2018-11-25T06:55:10.929Z,6.30
2018-11-25T06:57:39.437Z,6.30
2018-11-25T07:00:11.754Z,6.30
2018-11-25T07:02:40.283Z,6.30
2018-11-25T07:05:09.003Z,6.30
2018-11-25T07:07:37.405Z,6.30
2018-11-25T07:10:09.582Z,6.30
2018-11-25T07:12:38.077Z,6.30
2018-11-25T07:15:09.254Z,6.30
2018-11-25T07:17:37.626Z,6.30
2018-11-25T07:20:07.233Z,6.30
2018-11-25T07:22:35.675Z,6.30
2018-11-25T07:25:04.173Z,6.40
2018-11-25T07:27:32.612Z,6.40
2018-11-25T07:30:07.601Z,6.30
2018-11-25T07:32:29.593Z,6.30
2018-11-25T07:34:58.049Z,6.30
2018-11-25T07:37:26.459Z,6.40
2018-11-25T07:39:54.949Z,6.40
2018-11-25T07:42:23.301Z,6.40
2018-11-25T07:44:51.755Z,6.40
2018-11-25T07:47:20.176Z,6.40
2018-11-25T07:49:48.576Z,6.40
2018-11-25T07:52:17.060Z,6.40
2018-11-25T07:54:45.622Z,6.40
2018-11-25T07:57:14.421Z,6.40
2018-11-25T07:59:42.946Z,6.40
2018-11-25T08:02:11.434Z,6.40
2018-11-25T08:04:39.912Z,6.40
2018-11-25T08:07:08.513Z,6.40
2018-11-25T08:09:36.916Z,6.50
2018-11-25T08:12:05.361Z,6.50
2018-11-25T08:14:33.788Z,6.50
2018-11-25T08:17:02.177Z,6.50
2018-11-25T08:19:30.630Z,6.50
2018-11-25T08:21:59.121Z,6.50
2018-11-25T08:24:27.601Z,6.50
2018-11-25T08:26:56.237Z,6.40
2018-11-25T08:29:24.700Z,6.40
2018-11-25T08:31:53.152Z,6.30
2018-11-25T08:34:21.652Z,6.40
2018-11-25T08:36:50.339Z,6.40
2018-11-25T08:39:18.778Z,6.40
2018-11-25T08:41:47.169Z,6.50
2018-11-25T08:44:16.178Z,6.50
2018-11-25T08:46:44.738Z,6.40
2018-11-25T08:49:13.194Z,6.50
2018-11-25T08:51:41.700Z,6.50
2018-11-25T08:54:10.208Z,6.50
2018-11-25T08:56:38.767Z,6.50
2018-11-25T08:59:07.222Z,6.50
2018-11-25T09:01:35.645Z,6.50
2018-11-25T09:04:04.046Z,6.50
2018-11-25T09:06:32.574Z,6.40
2018-11-25T09:09:01.149Z,6.50
2018-11-25T09:11:29.632Z,6.50
2018-11-25T09:13:59.221Z,6.60
2018-11-25T09:16:29.154Z,6.60
2018-11-25T09:18:58.153Z,6.50
2018-11-25T09:21:26.604Z,6.60
2018-11-25T09:23:55.119Z,6.70
2018-11-25T09:26:23.590Z,6.80
2018-11-25T09:28:52.356Z,6.90
2018-11-25T09:31:20.607Z,7.00
2018-11-25T09:33:49.169Z,7.00
2018-11-25T09:36:17.577Z,7.10
2018-11-25T09:38:46.410Z,7.10
2018-11-25T09:41:14.938Z,7.20
2018-11-25T09:43:43.521Z,7.20
2018-11-25T09:46:12.138Z,7.30
2018-11-25T09:48:40.578Z,7.40
2018-11-25T09:51:09.085Z,7.40
2018-11-25T09:53:37.601Z,7.40
2018-11-25T09:56:06.679Z,7.50
2018-11-25T09:58:35.272Z,7.50
2018-11-25T10:01:03.874Z,7.50
2018-11-25T10:03:32.510Z,7.50
2018-11-25T10:06:02.131Z,7.50
2018-11-25T10:08:30.620Z,7.60
2018-11-25T10:10:59.121Z,7.60
2018-11-25T10:13:27.595Z,7.60
2018-11-25T10:15:56.178Z,7.50
2018-11-25T10:18:24.625Z,7.50
2018-11-25T10:20:53.241Z,7.50
2018-11-25T10:23:21.733Z,7.50
2018-11-25T10:25:50.221Z,7.50
2018-11-25T10:28:19.533Z,7.50
2018-11-25T10:30:48.041Z,7.60
2018-11-25T10:33:16.546Z,7.60
2018-11-25T10:35:45.079Z,7.70
2018-11-25T10:38:13.705Z,7.70
2018-11-25T10:40:42.139Z,7.60
2018-11-25T10:43:10.603Z,7.50
2018-11-25T10:45:39.039Z,7.40
2018-11-25T10:48:07.596Z,7.40
2018-11-25T10:50:36.015Z,7.30
2018-11-25T10:53:04.456Z,7.30
2018-11-25T10:55:32.883Z,7.20
2018-11-25T10:58:01.433Z,7.10
2018-11-25T11:00:37.197Z,7.10
2018-11-25T11:03:12.298Z,7.10
2018-11-25T11:05:46.179Z,7.00
2018-11-25T11:08:14.804Z,7.00
2018-11-25T11:10:43.382Z,7.10
2018-11-25T11:13:11.839Z,7.20
2018-11-25T11:15:40.222Z,7.20
2018-11-25T11:18:08.786Z,7.20
2018-11-25T11:20:37.244Z,7.10
2018-11-25T11:23:06.094Z,7.10
2018-11-25T11:25:34.561Z,7.10
2018-11-25T11:28:02.982Z,7.10
2018-11-25T11:30:31.387Z,7.10
2018-11-25T11:32:59.869Z,7.00
2018-11-25T11:35:28.277Z,7.00
2018-11-25T11:37:56.720Z,7.00
2018-11-25T11:40:25.196Z,7.00
2018-11-25T11:42:53.769Z,7.10
2018-11-25T11:45:23.116Z,7.10
2018-11-25T11:47:51.653Z,7.10
2018-11-25T11:50:21.310Z,7.10
2018-11-25T11:52:49.746Z,7.10
2018-11-25T11:55:18.610Z,7.10
2018-11-25T11:57:47.741Z,7.20
2018-11-25T12:00:21.725Z,7.40
2018-11-25T12:02:50.358Z,7.40
2018-11-25T12:05:18.849Z,7.30
2018-11-25T12:07:47.222Z,7.30
2018-11-25T12:10:16.361Z,7.30
2018-11-25T12:12:44.899Z,7.20
2018-11-25T12:15:17.660Z,7.20
2018-11-25T12:17:46.115Z,7.20
2018-11-25T12:20:14.767Z,7.20
2018-11-25T12:22:43.322Z,7.10
2018-11-25T12:25:14.908Z,7.10
2018-11-25T12:27:43.457Z,7.10
2018-11-25T12:30:12.855Z,7.10
2018-11-25T12:32:41.667Z,7.10
2018-11-25T12:35:11.167Z,7.10
2018-11-25T12:37:39.761Z,7.10
2018-11-25T12:40:12.419Z,7.10
2018-11-25T12:42:41.292Z,7.10
2018-11-25T12:45:11.743Z,7.10
2018-11-25T12:47:40.169Z,7.10
2018-11-25T12:50:10.195Z,7.10
2018-11-25T12:52:38.695Z,7.10
2018-11-25T12:55:13.711Z,7.10
2018-11-25T12:57:42.082Z,7.10
2018-11-25T13:00:15.937Z,7.10
2018-11-25T13:02:46.005Z,7.10
2018-11-25T13:05:14.477Z,7.10
2018-11-25T13:07:42.936Z,7.20
2018-11-25T13:10:11.476Z,7.20
2018-11-25T13:12:39.973Z,7.20
2018-11-25T13:15:12.926Z,7.20
2018-11-25T13:17:41.474Z,7.10
2018-11-25T13:20:12.962Z,7.10
2018-11-25T13:22:41.449Z,7.20
2018-11-25T13:25:12.105Z,7.30
2018-11-25T13:27:44.414Z,7.30
2018-11-25T13:30:23.962Z,7.40
2018-11-25T13:32:53.611Z,7.50
2018-11-25T13:35:22.201Z,7.50
2018-11-25T13:37:50.684Z,7.60
2018-11-25T13:40:19.190Z,7.50
2018-11-25T13:42:47.785Z,7.50
2018-11-25T13:45:16.291Z,7.40
2018-11-25T13:47:44.990Z,7.40
2018-11-25T13:50:13.931Z,7.40
2018-11-25T13:52:42.439Z,7.40
2018-11-25T13:55:14.069Z,7.60
2018-11-25T13:57:42.945Z,7.80
2018-11-25T14:00:16.562Z,8.00
2018-11-25T14:02:45.076Z,8.00
2018-11-25T14:05:13.569Z,8.00
2018-11-25T14:07:42.012Z,7.90
2018-11-25T14:10:17.628Z,7.90
2018-11-25T14:12:46.147Z,7.80
2018-11-25T14:15:14.621Z,7.80
2018-11-25T14:17:43.064Z,7.70
2018-11-25T14:20:11.495Z,7.60
2018-11-25T14:22:39.989Z,7.60
2018-11-25T14:25:11.018Z,7.50
2018-11-25T14:27:39.462Z,7.50
2018-11-25T14:30:14.827Z,7.50
2018-11-25T14:32:43.339Z,7.40
2018-11-25T14:35:13.344Z,7.40
2018-11-25T14:37:41.824Z,7.40
2018-11-25T14:40:11.745Z,7.50
2018-11-25T14:42:40.169Z,7.60
2018-11-25T14:45:10.222Z,7.50
2018-11-25T14:47:38.614Z,7.50
2018-11-25T14:50:12.410Z,7.50
2018-11-25T14:52:41.361Z,7.40
2018-11-25T14:55:11.908Z,7.40
2018-11-25T14:57:40.776Z,7.40
2018-11-25T15:00:12.745Z,7.40
2018-11-25T15:02:41.441Z,7.40
2018-11-25T15:05:22.217Z,7.40
2018-11-25T15:07:50.702Z,7.40
2018-11-25T15:10:19.256Z,7.40
2018-11-25T15:12:47.657Z,7.30
2018-11-25T15:15:16.985Z,7.30
2018-11-25T15:17:45.663Z,7.40
2018-11-25T15:20:14.226Z,7.30
2018-11-25T15:22:44.405Z,7.40
2018-11-25T15:25:16.331Z,7.40
2018-11-25T15:27:44.773Z,7.40
2018-11-25T15:30:13.274Z,7.40
2018-11-25T15:32:41.913Z,7.40
2018-11-25T15:35:11.639Z,7.40
2018-11-25T15:37:41.709Z,7.40
2018-11-25T15:40:15.278Z,7.40
2018-11-25T15:42:43.743Z,7.50
2018-11-25T15:45:12.282Z,7.60
2018-11-25T15:47:42.577Z,7.60
2018-11-25T15:50:13.895Z,7.60
2018-11-25T15:52:42.429Z,7.60
2018-11-25T15:55:13.419Z,7.50
2018-11-25T15:57:42.029Z,7.50
2018-11-25T16:00:15.800Z,7.50
2018-11-25T16:02:44.308Z,7.50
2018-11-25T16:05:19.453Z,7.50
2018-11-25T16:07:47.933Z,7.50
2018-11-25T16:10:16.460Z,7.50
2018-11-25T16:12:46.281Z,7.50
2018-11-25T16:15:16.026Z,7.50
2018-11-25T16:17:44.456Z,7.50
2018-11-25T16:20:19.047Z,7.50
2018-11-25T16:22:50.709Z,7.50
2018-11-25T16:25:54.955Z,7.50
2018-11-25T16:28:33.068Z,7.50
2018-11-25T16:31:01.508Z,7.50
2018-11-25T16:33:30.038Z,7.40
2018-11-25T16:35:58.469Z,7.50
2018-11-25T16:38:26.962Z,7.40
2018-11-25T16:40:55.522Z,7.40
2018-11-25T16:43:23.967Z,7.40
2018-11-25T16:45:52.569Z,7.40
2018-11-25T16:48:21.033Z,7.40
2018-11-25T16:50:49.476Z,7.40
2018-11-25T16:53:17.893Z,7.40
2018-11-25T16:55:46.367Z,7.40
2018-11-25T16:58:14.950Z,7.40
2018-11-25T17:00:43.354Z,7.40
2018-11-25T17:03:11.836Z,7.40
2018-11-25T17:05:42.201Z,7.40
2018-11-25T17:08:17.464Z,7.40
2018-11-25T17:10:45.932Z,7.30
2018-11-25T17:13:14.365Z,7.30
2018-11-25T17:15:42.899Z,7.30
2018-11-25T17:18:11.361Z,7.30
2018-11-25T17:20:39.802Z,7.30
2018-11-25T17:23:18.585Z,7.30
2018-11-25T17:25:47.307Z,7.30
2018-11-25T17:28:15.778Z,7.40
2018-11-25T17:30:44.201Z,7.30
2018-11-25T17:33:12.617Z,7.40
2018-11-25T17:35:41.210Z,7.30
2018-11-25T17:38:09.738Z,7.40
2018-11-25T17:40:38.889Z,7.40
2018-11-25T17:43:09.678Z,7.30
2018-11-25T17:45:38.479Z,7.30
2018-11-25T17:48:07.107Z,7.30
2018-11-25T17:50:35.645Z,7.30
2018-11-25T17:53:04.121Z,7.40
2018-11-25T17:55:32.917Z,7.30
2018-11-25T17:58:01.403Z,7.30
2018-11-25T18:00:41.370Z,7.30
2018-11-25T18:03:14.584Z,7.30
2018-11-25T18:05:43.023Z,7.30
2018-11-25T18:08:11.425Z,7.40
2018-11-25T18:10:39.893Z,7.40
2018-11-25T18:13:08.374Z,7.50
2018-11-25T18:15:36.838Z,7.50
2018-11-25T18:18:10.861Z,7.60
2018-11-25T18:20:42.780Z,7.60
2018-11-25T18:23:11.208Z,7.50
2018-11-25T18:25:39.686Z,7.40
2018-11-25T18:28:08.181Z,7.50
2018-11-25T18:30:36.706Z,7.50
2018-11-25T18:33:05.119Z,7.70
2018-11-25T18:35:33.602Z,7.90
2018-11-25T18:38:02.176Z,8.20
2018-11-25T18:40:30.555Z,8.30
2018-11-25T18:42:58.952Z,8.30
2018-11-25T18:45:27.352Z,8.10
2018-11-25T18:47:55.831Z,8.00
2018-11-25T18:50:24.310Z,7.80
2018-11-25T18:52:53.924Z,7.70
2018-11-25T18:55:21.215Z,7.60
2018-11-25T18:57:49.628Z,7.50
2018-11-25T19:00:32.855Z,7.50
2018-11-25T19:03:01.349Z,7.40
2018-11-25T19:05:29.793Z,7.30
2018-11-25T19:07:58.159Z,7.30
2018-11-25T19:10:26.668Z,7.20
2018-11-25T19:12:55.327Z,7.20
2018-11-25T19:15:23.985Z,7.20
2018-11-25T19:17:52.413Z,7.10
2018-11-25T19:20:25.130Z,7.10
2018-11-25T19:22:53.749Z,7.10
2018-11-25T19:25:22.218Z,7.10
2018-11-25T19:27:50.750Z,7.10
2018-11-25T19:30:26.125Z,7.00
2018-11-25T19:32:49.257Z,7.00
2018-11-25T19:35:19.128Z,7.10
2018-11-25T19:37:48.796Z,7.10
2018-11-25T19:40:18.594Z,7.10
2018-11-25T19:42:47.022Z,7.10
2018-11-25T19:45:19.833Z,7.00
2018-11-25T19:47:48.385Z,7.00
2018-11-25T19:50:25.285Z,7.00
2018-11-25T19:52:53.730Z,7.00
2018-11-25T19:55:22.107Z,6.90
2018-11-25T19:57:50.612Z,7.00
2018-11-25T20:00:20.659Z,7.00
2018-11-25T20:02:50.586Z,7.00
2018-11-25T20:05:19.097Z,7.00
2018-11-25T20:07:47.514Z,7.00
2018-11-25T20:10:18.958Z,7.00
2018-11-25T20:12:48.558Z,7.00
2018-11-25T20:15:18.092Z,7.00
2018-11-25T20:17:54.134Z,7.00
2018-11-25T20:20:17.962Z,7.00
2018-11-25T20:22:46.495Z,7.00
2018-11-25T20:25:15.406Z,7.00
2018-11-25T20:27:51.393Z,7.00
2018-11-25T20:30:22.165Z,6.90
2018-11-25T20:32:56.221Z,6.90
2018-11-25T20:35:24.737Z,7.00
2018-11-25T20:37:58.850Z,6.90
2018-11-25T20:40:27.306Z,6.90
2018-11-25T20:42:55.710Z,6.90
2018-11-25T20:45:29.684Z,6.90
2018-11-25T20:47:59.258Z,6.90
2018-11-25T20:50:27.645Z,6.90
2018-11-25T20:53:01.538Z,6.90
2018-11-25T20:55:30.076Z,6.90
2018-11-25T20:58:03.037Z,6.90
2018-11-25T21:00:31.856Z,6.90
2018-11-25T21:03:00.416Z,6.90
2018-11-25T21:05:28.885Z,6.90
2018-11-25T21:07:57.339Z,6.90
2018-11-25T21:10:26.248Z,6.90
2018-11-25T21:12:54.899Z,6.80
2018-11-25T21:15:23.426Z,6.90
2018-11-25T21:17:51.933Z,6.90
2018-11-25T21:20:22.296Z,6.90
2018-11-25T21:22:50.764Z,6.90
2018-11-25T21:25:21.366Z,6.90
2018-11-25T21:27:49.843Z,6.90
2018-11-25T21:30:20.483Z,6.90
2018-11-25T21:32:50.113Z,6.90
2018-11-25T21:35:18.607Z,6.90
2018-11-25T21:37:47.044Z,6.90
2018-11-25T21:40:24.288Z,6.90
2018-11-25T21:42:53.020Z,6.90
2018-11-25T21:45:21.922Z,6.90
2018-11-25T21:47:50.495Z,6.90
2018-11-25T21:50:20.247Z,6.90
2018-11-25T21:52:48.678Z,6.90
2018-11-25T21:55:17.861Z,6.90
2018-11-25T21:57:46.242Z,6.80
2018-11-25T22:00:17.651Z,6.80
2018-11-25T22:02:46.160Z,6.80
2018-11-25T22:05:15.047Z,6.90
2018-11-25T22:07:43.469Z,6.80
2018-11-25T22:10:12.913Z,6.90
2018-11-25T22:12:42.124Z,6.90
2018-11-25T22:15:14.578Z,6.90
2018-11-25T22:17:43.219Z,6.90
2018-11-25T22:20:12.598Z,6.90
2018-11-25T22:22:41.052Z,6.90
2018-11-25T22:25:14.832Z,6.90
2018-11-25T22:27:43.359Z,6.90
2018-11-25T22:30:13.705Z,6.90
2018-11-25T22:32:42.224Z,6.90
2018-11-25T22:35:14.984Z,6.90
2018-11-25T22:37:43.534Z,6.90
2018-11-25T22:40:12.826Z,6.90
2018-11-25T22:42:41.961Z,6.90
2018-11-25T22:45:12.683Z,6.90
2018-11-25T22:47:41.457Z,6.90
2018-11-25T22:50:11.847Z,6.90
2018-11-25T22:52:40.329Z,6.90
2018-11-25T22:55:12.289Z,6.90
2018-11-25T22:57:40.748Z,6.90
2018-11-25T23:00:19.962Z,6.90
2018-11-25T23:02:48.409Z,6.80
2018-11-25T23:05:28.212Z,6.80
2018-11-25T23:07:56.637Z,6.80
2018-11-25T23:10:25.088Z,6.80
2018-11-25T23:12:53.574Z,6.80
2018-11-25T23:15:22.147Z,6.80
2018-11-25T23:17:50.766Z,6.80
2018-11-25T23:20:19.240Z,6.80
2018-11-25T23:22:47.715Z,6.70
2018-11-25T23:25:16.221Z,6.70
2018-11-25T23:27:44.665Z,6.80
2018-11-25T23:30:13.068Z,6.80
2018-11-25T23:32:41.477Z,6.80
2018-11-25T23:35:14.978Z,6.80
2018-11-25T23:37:43.405Z,6.80
2018-11-25T23:40:11.869Z,6.80
2018-11-25T23:42:40.381Z,6.80
2018-11-25T23:45:11.358Z,6.80
2018-11-25T23:47:42.069Z,6.80
2018-11-25T23:50:12.497Z,6.80
2018-11-25T23:52:42.347Z,6.80
2018-11-25T23:55:11.951Z,6.80
2018-11-25T23:57:40.401Z,6.80
